createdAt,value
2022-08-29T00:01:21.763Z,5.70
2022-08-29T00:06:30.081Z,5.60
2022-08-29T00:11:36.981Z,5.93
2022-08-29T00:16:45.616Z,6.10
2022-08-29T00:21:52.617Z,5.97
2022-08-29T00:27:01.061Z,6.47
2022-08-29T00:32:08.128Z,6.17
2022-08-29T00:37:15.143Z,6.17
2022-08-29T00:42:22.921Z,6.00
2022-08-29T00:47:34.027Z,6.27
2022-08-29T00:52:44.752Z,5.67
2022-08-29T00:57:54.510Z,6.03
2022-08-29T01:03:03.119Z,6.10
2022-08-29T01:08:10.966Z,6.50
2022-08-29T01:13:18.036Z,6.50
2022-08-29T01:18:27.037Z,6.37
2022-08-29T01:23:36.771Z,6.20
2022-08-29T01:28:46.573Z,6.07
2022-08-29T01:33:58.206Z,6.83
2022-08-29T01:39:06.829Z,6.57
2022-08-29T01:44:18.603Z,6.20
2022-08-29T01:49:25.935Z,6.50
2022-08-29T01:54:34.590Z,6.43
2022-08-29T01:59:41.856Z,6.50
2022-08-29T02:04:50.126Z,6.67
2022-08-29T02:09:57.083Z,6.60
2022-08-29T02:15:04.389Z,6.47
2022-08-29T02:20:11.692Z,6.67
2022-08-29T02:25:20.191Z,6.60
2022-08-29T02:30:27.121Z,6.73
2022-08-29T02:35:35.982Z,6.03
2022-08-29T02:40:43.311Z,6.07
2022-08-29T02:45:50.507Z,6.10
2022-08-29T02:50:59.352Z,6.57
2022-08-29T02:56:06.453Z,6.73
2022-08-29T03:01:15.163Z,6.37
2022-08-29T03:06:22.927Z,6.83
2022-08-29T03:11:30.146Z,5.97
2022-08-29T03:16:37.117Z,6.20
2022-08-29T03:21:45.695Z,6.30
2022-08-29T03:26:56.288Z,6.13
2022-08-29T03:32:00.980Z,6.43
2022-08-29T03:37:07.918Z,6.10
2022-08-29T03:42:15.683Z,6.50
2022-08-29T03:47:22.566Z,6.63
2022-08-29T03:52:29.855Z,6.20
2022-08-29T03:57:36.697Z,6.20
2022-08-29T04:02:45.781Z,6.73
2022-08-29T04:07:55.698Z,6.43
2022-08-29T04:13:02.864Z,6.40
2022-08-29T04:18:11.949Z,6.40
2022-08-29T04:23:18.922Z,6.63
2022-08-29T04:28:25.890Z,6.33
2022-08-29T04:33:32.860Z,6.10
2022-08-29T04:38:39.906Z,6.43
2022-08-29T04:43:48.599Z,6.50
2022-08-29T04:48:56.935Z,6.10
2022-08-29T04:54:07.057Z,5.83
2022-08-29T04:59:18.351Z,5.90
2022-08-29T05:04:27.024Z,5.80
2022-08-29T05:09:33.956Z,6.33
2022-08-29T05:14:40.849Z,5.77
2022-08-29T05:19:48.258Z,5.80
2022-08-29T05:24:56.926Z,5.90
2022-08-29T05:30:05.531Z,5.73
2022-08-29T05:35:12.429Z,6.00
2022-08-29T05:40:20.705Z,6.30
2022-08-29T05:45:27.569Z,5.70
2022-08-29T05:50:36.076Z,5.57
2022-08-29T05:55:45.067Z,5.83
2022-08-29T06:00:52.103Z,5.90
2022-08-29T06:05:58.904Z,5.20
2022-08-29T06:11:06.349Z,5.30
2022-08-29T06:16:16.011Z,5.13
2022-08-29T06:21:23.236Z,5.30
2022-08-29T06:26:31.668Z,5.13
2022-08-29T06:31:39.308Z,5.07
2022-08-29T06:36:46.269Z,5.20
2022-08-29T06:41:53.165Z,5.40
2022-08-29T06:47:02.258Z,4.87
2022-08-29T06:52:09.318Z,5.23
2022-08-29T06:57:16.188Z,5.30
2022-08-29T07:02:23.169Z,5.27
2022-08-29T07:07:30.271Z,5.20
2022-08-29T07:12:39.740Z,5.10
2022-08-29T07:17:47.577Z,5.43
2022-08-29T07:22:56.106Z,5.50
2022-08-29T07:28:03.308Z,5.27
2022-08-29T07:33:10.158Z,5.40
2022-08-29T07:38:17.088Z,5.10
2022-08-29T07:43:27.745Z,5.13
2022-08-29T07:48:33.355Z,5.23
2022-08-29T07:53:42.143Z,5.10
2022-08-29T07:58:48.965Z,4.70
2022-08-29T08:03:57.356Z,4.87
2022-08-29T08:09:06.933Z,4.20
2022-08-29T08:14:14.492Z,4.30
2022-08-29T08:19:21.350Z,4.77
2022-08-29T08:24:28.337Z,4.70
2022-08-29T08:29:35.376Z,5.33
2022-08-29T08:34:43.203Z,4.80
2022-08-29T08:39:50.186Z,4.70
2022-08-29T08:45:00.896Z,4.40
2022-08-29T08:50:10.376Z,4.60
2022-08-29T08:55:20.209Z,4.40
2022-08-29T09:00:29.585Z,4.63
2022-08-29T09:05:39.972Z,4.80
2022-08-29T09:10:49.802Z,4.20
2022-08-29T09:15:59.474Z,4.20
2022-08-29T09:21:30.069Z,3.90
2022-08-29T09:26:19.720Z,3.90
2022-08-29T09:31:28.163Z,3.80
2022-08-29T09:36:38.109Z,3.87
2022-08-29T09:41:47.874Z,3.97
2022-08-29T09:46:58.135Z,3.40
2022-08-29T09:52:08.115Z,3.63
2022-08-29T09:57:16.130Z,3.47
2022-08-29T10:02:22.690Z,3.00
2022-08-29T10:07:33.301Z,2.90
2022-08-29T10:12:44.815Z,2.80
2022-08-29T10:17:56.679Z,3.20
2022-08-29T10:23:06.653Z,3.03
2022-08-29T10:28:16.488Z,3.17
2022-08-29T10:33:29.290Z,2.80
2022-08-29T10:38:40.314Z,2.70
2022-08-29T10:43:50.195Z,2.33
2022-08-29T10:49:00.007Z,2.50
2022-08-29T10:54:09.790Z,2.77
2022-08-29T10:59:20.135Z,2.63
2022-08-29T11:04:30.115Z,2.73
2022-08-29T11:09:40.710Z,2.43
2022-08-29T11:14:49.903Z,2.63
2022-08-29T11:19:59.865Z,2.40
2022-08-29T11:25:06.141Z,2.53
2022-08-29T11:30:16.080Z,2.80
2022-08-29T11:35:25.920Z,2.80
2022-08-29T11:45:48.248Z,2.40
2022-08-29T11:56:12.589Z,2.30
2022-08-29T12:01:22.598Z,2.70
2022-08-29T12:06:32.634Z,2.57
2022-08-29T12:11:42.648Z,2.60
2022-08-29T12:16:53.668Z,2.53
2022-08-29T12:22:01.416Z,2.70
2022-08-29T12:27:15.303Z,2.13
2022-08-29T12:32:27.335Z,2.30
2022-08-29T12:37:34.692Z,2.50
2022-08-29T12:42:44.542Z,2.30
2022-08-29T12:47:54.442Z,2.23
2022-08-29T12:53:02.521Z,2.27
2022-08-29T12:58:11.772Z,2.00
2022-08-29T13:03:21.120Z,2.00
2022-08-29T13:08:32.577Z,2.23
2022-08-29T13:13:40.112Z,2.10
2022-08-29T13:19:00.675Z,2.27
2022-08-29T13:23:59.112Z,2.22
2022-08-29T13:29:07.297Z,2.00
2022-08-29T13:34:18.239Z,2.00
2022-08-29T13:39:28.531Z,1.95
2022-08-29T13:44:37.850Z,2.33
2022-08-29T13:49:44.868Z,2.50
2022-08-29T13:54:51.705Z,2.20
2022-08-29T13:59:59.643Z,1.90
2022-08-29T14:05:09.841Z,2.12
2022-08-29T14:10:17.815Z,2.25
2022-08-29T14:15:24.873Z,2.20
2022-08-29T14:20:32.927Z,2.15
2022-08-29T14:25:41.103Z,2.00
2022-08-29T14:30:52.102Z,2.12
2022-08-29T14:35:57.427Z,2.25
2022-08-29T14:41:04.459Z,2.30
2022-08-29T14:46:11.556Z,1.90
2022-08-29T14:51:18.477Z,2.25
2022-08-29T14:56:47.158Z,2.40
2022-08-29T15:01:37.062Z,2.27
2022-08-29T15:06:44.105Z,2.70
2022-08-29T15:11:51.007Z,2.45
2022-08-29T15:16:58.287Z,2.52
2022-08-29T15:22:05.621Z,2.62
2022-08-29T15:27:13.234Z,2.77
2022-08-29T15:32:20.599Z,2.62
2022-08-29T15:37:27.826Z,2.87
2022-08-29T15:42:35.186Z,2.70
2022-08-29T15:47:46.298Z,2.40
2022-08-29T15:52:51.524Z,2.30
2022-08-29T15:57:58.702Z,2.60
2022-08-29T16:03:07.707Z,2.65
2022-08-29T16:08:17.436Z,2.70
2022-08-29T16:13:23.871Z,2.43
2022-08-29T16:18:30.861Z,2.47
2022-08-29T16:23:37.716Z,2.80
2022-08-29T16:28:45.174Z,2.80
2022-08-29T16:33:52.369Z,2.80
2022-08-29T16:38:59.895Z,2.90
2022-08-29T16:44:08.438Z,3.00
2022-08-29T16:49:15.393Z,2.70
2022-08-29T16:54:22.249Z,3.43
2022-08-29T16:59:30.007Z,3.40
2022-08-29T17:04:37.617Z,3.07
2022-08-29T17:09:44.394Z,3.40
2022-08-29T17:14:54.753Z,3.13
2022-08-29T17:19:59.714Z,3.33
2022-08-29T17:25:08.900Z,3.23
2022-08-29T17:30:19.004Z,3.10
2022-08-29T17:35:26.010Z,3.07
2022-08-29T17:40:33.878Z,3.43
2022-08-29T17:45:42.436Z,2.93
2022-08-29T17:50:50.608Z,3.10
2022-08-29T17:55:57.483Z,3.20
2022-08-29T18:01:04.573Z,3.13
2022-08-29T18:06:11.861Z,3.47
2022-08-29T18:11:21.858Z,3.07
2022-08-29T18:16:28.915Z,3.20
2022-08-29T18:21:36.936Z,3.00
2022-08-29T18:26:46.281Z,3.60
2022-08-29T18:31:53.436Z,3.50
2022-08-29T18:37:00.440Z,3.30
2022-08-29T18:42:24.760Z,3.17
2022-08-29T18:47:17.086Z,3.37
2022-08-29T18:52:25.538Z,3.33
2022-08-29T18:57:32.501Z,3.30
2022-08-29T19:02:39.611Z,3.43
2022-08-29T19:07:47.222Z,3.83
2022-08-29T19:12:56.087Z,3.67
2022-08-29T19:18:03.045Z,3.30
2022-08-29T19:23:11.217Z,3.83
2022-08-29T19:28:20.274Z,3.47
2022-08-29T19:33:48.700Z,4.00
2022-08-29T19:39:08.290Z,4.70
2022-08-29T19:44:25.375Z,3.37
2022-08-29T19:49:52.970Z,3.50
2022-08-29T19:55:14.556Z,3.40
2022-08-29T20:00:37.913Z,3.60
2022-08-29T20:05:53.841Z,3.40
2022-08-29T20:11:09.369Z,3.30
2022-08-29T20:16:45.007Z,3.50
2022-08-29T20:21:55.137Z,3.50
2022-08-29T20:27:03.327Z,3.33
2022-08-29T20:32:10.623Z,3.63
2022-08-29T20:37:19.650Z,3.30
2022-08-29T20:42:27.535Z,3.40
2022-08-29T20:47:34.847Z,3.60
2022-08-29T20:52:42.074Z,3.33
2022-08-29T20:57:49.162Z,3.90
2022-08-29T21:02:59.017Z,4.00
2022-08-29T21:08:09.252Z,3.57
2022-08-29T21:13:17.686Z,3.60
2022-08-29T21:18:24.924Z,3.63
2022-08-29T21:23:31.905Z,3.63
2022-08-29T21:28:39.659Z,3.67
2022-08-29T21:33:47.296Z,3.63
2022-08-29T21:38:58.215Z,3.43
2022-08-29T21:44:09.098Z,3.93
2022-08-29T21:49:19.662Z,4.13
2022-08-29T21:54:26.912Z,3.73
2022-08-29T21:59:37.355Z,3.80
2022-08-29T22:04:44.631Z,3.70
2022-08-29T22:09:51.564Z,3.60
2022-08-29T22:15:00.517Z,3.80
2022-08-29T22:20:07.896Z,3.90
2022-08-29T22:25:14.760Z,3.97
2022-08-29T22:30:21.798Z,4.20
2022-08-29T22:35:30.741Z,3.93
2022-08-29T22:40:37.658Z,4.13
2022-08-29T22:45:45.845Z,3.90
2022-08-29T22:50:58.063Z,4.40
2022-08-29T22:56:03.945Z,4.53
2022-08-29T23:01:11.507Z,4.10
2022-08-29T23:06:18.696Z,4.20
2022-08-29T23:11:26.755Z,3.93
2022-08-29T23:16:34.766Z,4.20
2022-08-29T23:21:41.778Z,4.30
2022-08-29T23:26:50.781Z,4.23
2022-08-29T23:31:58.491Z,4.10
2022-08-29T23:37:05.632Z,4.37
2022-08-29T23:42:12.617Z,4.07
2022-08-29T23:47:20.008Z,4.33
2022-08-29T23:52:27.036Z,4.20
2022-08-29T23:57:36.129Z,4.30
